sensor_id;sensor_type;location;lat;lon;timestamp;P1;durP1;ratioP1;P2;durP2;ratioP2
71959;SDS011;59832;51.146;14.024;2023-05-19T11:01:34;9.18;;;2.60;;
71959;SDS011;59832;51.146;14.024;2023-05-19T11:04:08;3.65;;;2.38;;
71959;SDS011;59832;51.146;14.024;2023-05-19T11:06:37;3.13;;;2.20;;
71959;SDS011;59832;51.146;14.024;2023-05-19T11:09:10;3.13;;;2.08;;
71959;SDS011;59832;51.146;14.024;2023-05-19T11:11:52;3.78;;;2.40;;
71959;SDS011;59832;51.146;14.024;2023-05-19T11:14:25;3.50;;;2.58;;
71959;SDS011;59832;51.146;14.024;2023-05-19T11:16:55;3.58;;;2.45;;
71959;SDS011;59832;51.146;14.024;2023-05-19T11:19:26;3.33;;;2.40;;
71959;SDS011;59832;51.146;14.024;2023-05-19T11:21:54;2.47;;;2.28;;
71959;SDS011;59832;51.146;14.024;2023-05-19T11:27:23;2.50;;;2.30;;
71959;SDS011;59832;51.146;14.024;2023-05-19T11:29:58;3.03;;;2.20;;
71959;SDS011;59832;51.146;14.024;2023-05-19T11:32:27;4.60;;;2.78;;
71959;SDS011;59832;51.146;14.024;2023-05-19T11:34:55;2.63;;;2.42;;
71959;SDS011;59832;51.146;14.024;2023-05-19T11:37:23;5.40;;;2.97;;
71959;SDS011;59832;51.146;14.024;2023-05-19T11:39:50;2.97;;;2.50;;
71959;SDS011;59832;51.146;14.024;2023-05-19T11:42:17;3.28;;;2.25;;
71959;SDS011;59832;51.146;14.024;2023-05-19T11:44:44;4.38;;;2.42;;
71959;SDS011;59832;51.146;14.024;2023-05-19T11:49:41;2.88;;;2.58;;
71959;SDS011;59832;51.146;14.024;2023-05-19T11:52:09;3.40;;;2.58;;
71959;SDS011;59832;51.146;14.024;2023-05-19T11:54:36;3.95;;;2.72;;
71959;SDS011;59832;51.146;14.024;2023-05-19T11:57:02;3.97;;;3.08;;
71959;SDS011;59832;51.146;14.024;2023-05-19T11:59:33;4.18;;;3.00;;
71959;SDS011;59832;51.146;14.024;2023-05-19T12:02:02;3.60;;;2.80;;
71959;SDS011;59832;51.146;14.024;2023-05-19T12:04:41;6.30;;;3.28;;
71959;SDS011;59832;51.146;14.024;2023-05-19T12:07:09;2.88;;;2.58;;
71959;SDS011;59832;51.146;14.024;2023-05-19T12:09:38;4.93;;;3.22;;
71959;SDS011;59832;51.146;14.024;2023-05-19T12:12:05;5.55;;;2.95;;
71959;SDS011;59832;51.146;14.024;2023-05-19T12:14:32;4.38;;;3.00;;
71959;SDS011;59832;51.146;14.024;2023-05-19T12:17:08;3.88;;;2.80;;
71959;SDS011;59832;51.146;14.024;2023-05-19T12:19:36;3.20;;;2.60;;
71959;SDS011;59832;51.146;14.024;2023-05-19T12:22:03;3.53;;;3.07;;
71959;SDS011;59832;51.146;14.024;2023-05-19T12:24:35;3.65;;;3.08;;
71959;SDS011;59832;51.146;14.024;2023-05-19T12:27:08;5.05;;;3.67;;
71959;SDS011;59832;51.146;14.024;2023-05-19T12:29:38;4.22;;;3.50;;
71959;SDS011;59832;51.146;14.024;2023-05-19T12:32:08;4.43;;;3.75;;
71959;SDS011;59832;51.146;14.024;2023-05-19T12:34:35;4.82;;;4.28;;
71959;SDS011;59832;51.146;14.024;2023-05-19T12:37:03;4.28;;;3.88;;
71959;SDS011;59832;51.146;14.024;2023-05-19T12:39:30;4.20;;;3.13;;
71959;SDS011;59832;51.146;14.024;2023-05-19T12:42:02;4.68;;;3.05;;
71959;SDS011;59832;51.146;14.024;2023-05-19T12:44:41;4.15;;;3.13;;
71959;SDS011;59832;51.146;14.024;2023-05-19T12:47:12;5.18;;;4.00;;
71959;SDS011;59832;51.146;14.024;2023-05-19T12:49:52;5.00;;;3.47;;
71959;SDS011;59832;51.146;14.024;2023-05-19T12:52:26;6.07;;;4.07;;
71959;SDS011;59832;51.146;14.024;2023-05-19T12:54:58;6.60;;;3.95;;
71959;SDS011;59832;51.146;14.024;2023-05-19T12:57:26;5.70;;;4.20;;
71959;SDS011;59832;51.146;14.024;2023-05-19T12:59:58;5.88;;;3.90;;
71959;SDS011;59832;51.146;14.024;2023-05-19T13:02:33;5.32;;;4.30;;
71959;SDS011;59832;51.146;14.024;2023-05-19T13:05:01;8.70;;;4.68;;
71959;SDS011;59832;51.146;14.024;2023-05-19T13:07:29;7.72;;;4.10;;
71959;SDS011;59832;51.146;14.024;2023-05-19T13:09:56;4.97;;;3.97;;
71959;SDS011;59832;51.146;14.024;2023-05-19T13:12:22;4.22;;;3.70;;
71959;SDS011;59832;51.146;14.024;2023-05-19T13:14:49;7.68;;;3.75;;
71959;SDS011;59832;51.146;14.024;2023-05-19T13:17:18;4.88;;;3.80;;
71959;SDS011;59832;51.146;14.024;2023-05-19T13:19:45;5.20;;;3.80;;
71959;SDS011;59832;51.146;14.024;2023-05-19T13:22:12;5.80;;;3.10;;
71959;SDS011;59832;51.146;14.024;2023-05-19T13:24:39;4.50;;;3.40;;
71959;SDS011;59832;51.146;14.024;2023-05-19T13:27:05;3.33;;;3.03;;
71959;SDS011;59832;51.146;14.024;2023-05-19T13:29:32;4.10;;;2.90;;
71959;SDS011;59832;51.146;14.024;2023-05-19T13:31:59;4.10;;;3.70;;
71959;SDS011;59832;51.146;14.024;2023-05-19T13:34:26;5.20;;;3.85;;
71959;SDS011;59832;51.146;14.024;2023-05-19T13:36:53;7.07;;;4.20;;
71959;SDS011;59832;51.146;14.024;2023-05-19T13:39:19;7.07;;;3.80;;
71959;SDS011;59832;51.146;14.024;2023-05-19T13:41:46;5.30;;;3.33;;
71959;SDS011;59832;51.146;14.024;2023-05-19T13:44:12;4.13;;;3.03;;
71959;SDS011;59832;51.146;14.024;2023-05-19T13:46:39;4.35;;;3.33;;
71959;SDS011;59832;51.146;14.024;2023-05-19T13:49:12;3.70;;;3.40;;
71959;SDS011;59832;51.146;14.024;2023-05-19T13:51:41;3.85;;;3.55;;
71959;SDS011;59832;51.146;14.024;2023-05-19T13:54:09;4.43;;;3.58;;
71959;SDS011;59832;51.146;14.024;2023-05-19T13:56:35;9.60;;;3.47;;
71959;SDS011;59832;51.146;14.024;2023-05-19T13:59:02;6.00;;;3.73;;
71959;SDS011;59832;51.146;14.024;2023-05-19T14:01:29;4.30;;;3.90;;
71959;SDS011;59832;51.146;14.024;2023-05-19T14:03:55;4.60;;;3.60;;
71959;SDS011;59832;51.146;14.024;2023-05-19T14:06:22;6.22;;;3.60;;
71959;SDS011;59832;51.146;14.024;2023-05-19T14:08:49;3.50;;;3.20;;
71959;SDS011;59832;51.146;14.024;2023-05-19T14:11:16;4.35;;;3.38;;
71959;SDS011;59832;51.146;14.024;2023-05-19T14:13:45;6.60;;;4.03;;
71959;SDS011;59832;51.146;14.024;2023-05-19T14:16:18;4.53;;;3.50;;
71959;SDS011;59832;51.146;14.024;2023-05-19T14:18:47;5.78;;;3.53;;
71959;SDS011;59832;51.146;14.024;2023-05-19T14:21:14;5.40;;;4.25;;
71959;SDS011;59832;51.146;14.024;2023-05-19T14:23:40;7.40;;;3.65;;
71959;SDS011;59832;51.146;14.024;2023-05-19T14:26:07;3.75;;;3.22;;
71959;SDS011;59832;51.146;14.024;2023-05-19T14:28:33;5.50;;;3.92;;
71959;SDS011;59832;51.146;14.024;2023-05-19T14:31:00;6.00;;;4.30;;
71959;SDS011;59832;51.146;14.024;2023-05-19T14:33:26;6.77;;;3.90;;
71959;SDS011;59832;51.146;14.024;2023-05-19T14:35:56;6.07;;;4.00;;
71959;SDS011;59832;51.146;14.024;2023-05-19T14:38:25;7.03;;;4.45;;
71959;SDS011;59832;51.146;14.024;2023-05-19T14:40:53;5.65;;;4.35;;
71959;SDS011;59832;51.146;14.024;2023-05-19T14:43:20;4.82;;;4.10;;
71959;SDS011;59832;51.146;14.024;2023-05-19T14:45:47;5.80;;;4.03;;
71959;SDS011;59832;51.146;14.024;2023-05-19T14:48:14;6.25;;;3.75;;
71959;SDS011;59832;51.146;14.024;2023-05-19T14:50:40;8.35;;;4.43;;
71959;SDS011;59832;51.146;14.024;2023-05-19T14:53:07;5.32;;;3.95;;
71959;SDS011;59832;51.146;14.024;2023-05-19T14:55:33;8.40;;;4.70;;
71959;SDS011;59832;51.146;14.024;2023-05-19T14:58:00;5.67;;;4.50;;
71959;SDS011;59832;51.146;14.024;2023-05-19T15:00:28;4.80;;;3.88;;
71959;SDS011;59832;51.146;14.024;2023-05-19T15:02:55;6.07;;;4.37;;
71959;SDS011;59832;51.146;14.024;2023-05-19T15:05:21;6.50;;;4.47;;
71959;SDS011;59832;51.146;14.024;2023-05-19T15:07:49;6.05;;;4.07;;
71959;SDS011;59832;51.146;14.024;2023-05-19T15:10:16;8.15;;;4.00;;
71959;SDS011;59832;51.146;14.024;2023-05-19T15:12:45;6.05;;;4.60;;
71959;SDS011;59832;51.146;14.024;2023-05-19T15:15:12;8.00;;;4.40;;
71959;SDS011;59832;51.146;14.024;2023-05-19T15:17:39;6.05;;;4.60;;
71959;SDS011;59832;51.146;14.024;2023-05-19T15:20:05;5.60;;;4.60;;
71959;SDS011;59832;51.146;14.024;2023-05-19T15:22:32;6.10;;;4.68;;
71959;SDS011;59832;51.146;14.024;2023-05-19T15:24:59;4.90;;;4.40;;
71959;SDS011;59832;51.146;14.024;2023-05-19T15:27:26;5.47;;;4.30;;
71959;SDS011;59832;51.146;14.024;2023-05-19T15:29:52;8.10;;;4.50;;
71959;SDS011;59832;51.146;14.024;2023-05-19T15:32:19;6.82;;;4.55;;
71959;SDS011;59832;51.146;14.024;2023-05-19T15:34:45;5.45;;;4.30;;
71959;SDS011;59832;51.146;14.024;2023-05-19T15:37:12;7.50;;;4.37;;
71959;SDS011;59832;51.146;14.024;2023-05-19T15:39:38;4.30;;;3.90;;
71959;SDS011;59832;51.146;14.024;2023-05-19T15:42:05;7.03;;;4.03;;
71959;SDS011;59832;51.146;14.024;2023-05-19T15:44:31;6.60;;;4.40;;
71959;SDS011;59832;51.146;14.024;2023-05-19T15:46:58;5.00;;;4.50;;
71959;SDS011;59832;51.146;14.024;2023-05-19T15:49:25;6.07;;;4.93;;
71959;SDS011;59832;51.146;14.024;2023-05-19T15:51:51;5.97;;;4.72;;
71959;SDS011;59832;51.146;14.024;2023-05-19T15:54:17;6.75;;;4.43;;
71959;SDS011;59832;51.146;14.024;2023-05-19T15:56:44;6.13;;;5.35;;
71959;SDS011;59832;51.146;14.024;2023-05-19T15:59:10;7.70;;;6.07;;
71959;SDS011;59832;51.146;14.024;2023-05-19T16:01:37;8.00;;;7.22;;
71959;SDS011;59832;51.146;14.024;2023-05-19T16:04:03;5.27;;;4.77;;
71959;SDS011;59832;51.146;14.024;2023-05-19T16:06:30;6.47;;;5.88;;
71959;SDS011;59832;51.146;14.024;2023-05-19T16:08:57;8.02;;;5.15;;
71959;SDS011;59832;51.146;14.024;2023-05-19T16:11:23;6.78;;;5.38;;
71959;SDS011;59832;51.146;14.024;2023-05-19T16:13:50;7.35;;;5.53;;
71959;SDS011;59832;51.146;14.024;2023-05-19T16:16:16;8.30;;;5.20;;
71959;SDS011;59832;51.146;14.024;2023-05-19T16:18:44;13.32;;;8.18;;
71959;SDS011;59832;51.146;14.024;2023-05-19T16:21:10;7.70;;;5.78;;
71959;SDS011;59832;51.146;14.024;2023-05-19T16:23:37;6.78;;;6.05;;
71959;SDS011;59832;51.146;14.024;2023-05-19T16:26:03;5.83;;;5.33;;
71959;SDS011;59832;51.146;14.024;2023-05-19T16:28:30;7.13;;;6.10;;
71959;SDS011;59832;51.146;14.024;2023-05-19T16:30:57;6.35;;;5.18;;
71959;SDS011;59832;51.146;14.024;2023-05-19T16:35:51;6.43;;;5.20;;
71959;SDS011;59832;51.146;14.024;2023-05-19T16:38:18;5.70;;;5.20;;
71959;SDS011;59832;51.146;14.024;2023-05-19T16:40:44;8.02;;;4.53;;
71959;SDS011;59832;51.146;14.024;2023-05-19T16:43:11;6.25;;;4.38;;
71959;SDS011;59832;51.146;14.024;2023-05-19T16:45:37;4.75;;;4.30;;
71959;SDS011;59832;51.146;14.024;2023-05-19T16:48:04;6.28;;;5.03;;
71959;SDS011;59832;51.146;14.024;2023-05-19T16:50:31;5.97;;;5.10;;
71959;SDS011;59832;51.146;14.024;2023-05-19T16:52:58;5.75;;;5.22;;
71959;SDS011;59832;51.146;14.024;2023-05-19T16:55:24;7.85;;;5.22;;
71959;SDS011;59832;51.146;14.024;2023-05-19T17:00:18;5.68;;;4.68;;
71959;SDS011;59832;51.146;14.024;2023-05-19T17:02:45;6.17;;;4.77;;
71959;SDS011;59832;51.146;14.024;2023-05-19T17:05:11;6.70;;;5.30;;
71959;SDS011;59832;51.146;14.024;2023-05-19T17:07:38;5.93;;;5.07;;
71959;SDS011;59832;51.146;14.024;2023-05-19T17:10:04;6.68;;;5.07;;
71959;SDS011;59832;51.146;14.024;2023-05-19T17:12:31;5.57;;;4.97;;
71959;SDS011;59832;51.146;14.024;2023-05-19T17:14:58;7.30;;;5.00;;
71959;SDS011;59832;51.146;14.024;2023-05-19T17:17:24;6.88;;;4.70;;
71959;SDS011;59832;51.146;14.024;2023-05-19T17:19:51;6.00;;;4.10;;
71959;SDS011;59832;51.146;14.024;2023-05-19T17:22:17;12.30;;;8.00;;
71959;SDS011;59832;51.146;14.024;2023-05-19T17:24:44;5.80;;;5.23;;
71959;SDS011;59832;51.146;14.024;2023-05-19T17:27:10;7.23;;;5.33;;
71959;SDS011;59832;51.146;14.024;2023-05-19T17:29:37;6.57;;;5.00;;
71959;SDS011;59832;51.146;14.024;2023-05-19T17:32:03;6.10;;;5.43;;
71959;SDS011;59832;51.146;14.024;2023-05-19T17:34:30;6.28;;;5.38;;
71959;SDS011;59832;51.146;14.024;2023-05-19T17:36:57;5.60;;;4.57;;
71959;SDS011;59832;51.146;14.024;2023-05-19T17:39:24;7.03;;;6.10;;
71959;SDS011;59832;51.146;14.024;2023-05-19T17:41:51;6.72;;;6.03;;
71959;SDS011;59832;51.146;14.024;2023-05-19T17:44:17;8.30;;;6.40;;
71959;SDS011;59832;51.146;14.024;2023-05-19T17:46:44;8.68;;;7.25;;
71959;SDS011;59832;51.146;14.024;2023-05-19T17:49:10;8.10;;;6.60;;
71959;SDS011;59832;51.146;14.024;2023-05-19T17:51:38;7.57;;;6.20;;
71959;SDS011;59832;51.146;14.024;2023-05-19T17:54:04;8.50;;;6.47;;
71959;SDS011;59832;51.146;14.024;2023-05-19T17:56:31;8.85;;;6.57;;
71959;SDS011;59832;51.146;14.024;2023-05-19T17:58:59;7.20;;;6.50;;
71959;SDS011;59832;51.146;14.024;2023-05-19T18:01:26;7.60;;;6.20;;
71959;SDS011;59832;51.146;14.024;2023-05-19T18:03:53;8.45;;;6.47;;
71959;SDS011;59832;51.146;14.024;2023-05-19T18:06:20;9.82;;;6.93;;
71959;SDS011;59832;51.146;14.024;2023-05-19T18:08:47;7.85;;;6.60;;
71959;SDS011;59832;51.146;14.024;2023-05-19T18:11:16;8.55;;;6.68;;
71959;SDS011;59832;51.146;14.024;2023-05-19T18:13:43;10.65;;;7.30;;
71959;SDS011;59832;51.146;14.024;2023-05-19T18:16:10;8.80;;;6.88;;
71959;SDS011;59832;51.146;14.024;2023-05-19T18:18:37;9.88;;;6.97;;
71959;SDS011;59832;51.146;14.024;2023-05-19T18:21:06;9.15;;;7.32;;
71959;SDS011;59832;51.146;14.024;2023-05-19T18:23:32;7.85;;;6.60;;
71959;SDS011;59832;51.146;14.024;2023-05-19T18:25:59;9.65;;;7.78;;
71959;SDS011;59832;51.146;14.024;2023-05-19T18:28:25;9.57;;;7.90;;
71959;SDS011;59832;51.146;14.024;2023-05-19T18:30:59;8.57;;;7.05;;
71959;SDS011;59832;51.146;14.024;2023-05-19T18:33:26;13.13;;;7.75;;
71959;SDS011;59832;51.146;14.024;2023-05-19T18:35:56;10.98;;;8.15;;
71959;SDS011;59832;51.146;14.024;2023-05-19T18:38:23;12.98;;;8.52;;
71959;SDS011;59832;51.146;14.024;2023-05-19T18:40:50;15.90;;;9.00;;
71959;SDS011;59832;51.146;14.024;2023-05-19T18:43:17;11.90;;;9.00;;
71959;SDS011;59832;51.146;14.024;2023-05-19T18:45:46;13.20;;;8.32;;
71959;SDS011;59832;51.146;14.024;2023-05-19T18:48:13;12.93;;;9.27;;
71959;SDS011;59832;51.146;14.024;2023-05-19T18:50:41;14.75;;;9.50;;
71959;SDS011;59832;51.146;14.024;2023-05-19T18:53:10;13.65;;;9.52;;
71959;SDS011;59832;51.146;14.024;2023-05-19T18:55:37;14.75;;;9.90;;
71959;SDS011;59832;51.146;14.024;2023-05-19T18:58:03;15.77;;;9.98;;
71959;SDS011;59832;51.146;14.024;2023-05-19T19:02:58;17.27;;;9.80;;
71959;SDS011;59832;51.146;14.024;2023-05-19T19:05:25;14.95;;;9.98;;
71959;SDS011;59832;51.146;14.024;2023-05-19T19:07:51;15.98;;;10.20;;
71959;SDS011;59832;51.146;14.024;2023-05-19T19:10:18;19.45;;;10.75;;
71959;SDS011;59832;51.146;14.024;2023-05-19T19:12:45;13.90;;;10.20;;
71959;SDS011;59832;51.146;14.024;2023-05-19T19:15:11;16.27;;;10.93;;
71959;SDS011;59832;51.146;14.024;2023-05-19T19:17:39;16.20;;;10.63;;
71959;SDS011;59832;51.146;14.024;2023-05-19T19:20:06;16.52;;;10.48;;
71959;SDS011;59832;51.146;14.024;2023-05-19T19:25:00;17.97;;;11.37;;
71959;SDS011;59832;51.146;14.024;2023-05-19T19:27:26;19.05;;;10.95;;
71959;SDS011;59832;51.146;14.024;2023-05-19T19:29:59;16.58;;;11.43;;
71959;SDS011;59832;51.146;14.024;2023-05-19T19:32:26;16.27;;;11.40;;
71959;SDS011;59832;51.146;14.024;2023-05-19T19:34:53;15.50;;;11.38;;
71959;SDS011;59832;51.146;14.024;2023-05-19T19:37:19;18.27;;;12.03;;
71959;SDS011;59832;51.146;14.024;2023-05-19T19:39:46;17.23;;;11.95;;
71959;SDS011;59832;51.146;14.024;2023-05-19T19:42:12;16.13;;;11.15;;
71959;SDS011;59832;51.146;14.024;2023-05-19T19:44:39;15.70;;;11.83;;
71959;SDS011;59832;51.146;14.024;2023-05-19T19:47:06;19.27;;;12.93;;
71959;SDS011;59832;51.146;14.024;2023-05-19T19:49:32;18.42;;;13.20;;
71959;SDS011;59832;51.146;14.024;2023-05-19T19:51:59;20.02;;;13.27;;
71959;SDS011;59832;51.146;14.024;2023-05-19T19:54:26;20.63;;;14.77;;
71959;SDS011;59832;51.146;14.024;2023-05-19T19:56:52;18.60;;;13.00;;
71959;SDS011;59832;51.146;14.024;2023-05-19T19:59:19;20.88;;;13.30;;
